Portada
METAR-TAF:

METAR-TAF

Aeroports :

Yellowknife, Territoris del Nord-oest, Canadà

latitud: 62-28N, longitud: 114-27W, altitud: 205 m

Observació

L'informe es va fer fa 28 minuts, a les 01:00 UTC
Vent 6 kt del Nord-Oest
Temperatura -11°C
Humitat 85%
Pressió 1005 hPa
Visibilitat: 16.1 km
Cel cobert a una alçada de 2500 ft
neu

METAR: CYZF 160100Z 31006KT 10SM -SN OVC025 M11/M13 A2969 RMK SC8 SLP076

Hora: 18:28 (01:28 UTC)

Pronòstic

L'informe es va fer fa 1 hora i 7 minuts, a les 00:21 UTC
Pronòstic vàlid del 16 a les 00 UTC al 16 a les 24 UTC
Vent 5 kt del Nord-Oest
Visibilitat: 10 km
Cel cobert a una alçada de 2500 ft
Temporalment
l' 16 a les 00 UTC al 16 a les 24 UTC
Visibilitat: 8.0 km
Cel cobert a una alçada de 2000 ft
neu
Probabilitat 30%
l' 16 a les 00 UTC al 16 a les 06 UTC
Visibilitat: 3.2 km
Cel cobert a una alçada de 1000 ft
neu

TAF: CYZF 160021Z 1600/1624 32005KT P6SM OVC025 TEMPO 1600/1624 5SM -SN OVC020 PROB30 1600/1606 2SM -SN OVC010 RMK NXT FCST BY 160600Z

Observacions i pronòstics meteorològics de més de 4000 aeroports (METAR i TAF).

Les estacions disponibles són els punts grocs i vermells al mapa.

Posi el ratolí al punt desitjat per veure el nom de l'estació.

Feu clic per veure les observacions i els pronòstics meteorològics.

Per canviar el mapa: feu clic els botons verds amb una creu de color negre per apropar; al botó verd amb un guió per allunyar la imatge; o en les fletxes verdes per a mapes adjacents.


METAR-TAF: